Oglesby, IL (61348)

2:28 AM CDT on September 02, 2015 (GMT -0500)
Baker Lake | | Change Station
CLOSE
Current Station
Personal Weather Station
Location: Peru, IL
Elevation: 652 ft
Nearby Weather Stations

Elev 652 ft 41.34 °N, 89.11 °W | Updated 3 minutes ago

Clear
Clear
73.8 °F
Feels Like 73 °F
N
1.0
Wind Variable Wind from SSW
Gusts 1.0 mph

Today
High -- | Low -- °F
--% Chance of Precip.
Yesterday
High -- | Low -- °F
Precip. -- in
6:23 AM 7:27 PM
Waning Gibbous, 82% visible
Pressure 30.04 in
Visibility 10.0 miles
Clouds Clear
Heat Index 73 °F
Dew Point 70 °F
Humidity 87%
Rainfall 0.00 in
Snow Depth Not available.
UV 0 out of 12
Pollen 10.90 out of 12
Air Quality Not available.
Flu Activity Not available.
METAR KVYS 020715Z AUTO 21007KT 10SM CLR 22/20 A3004 RMK AO2 T02150195
Pressure 30.04 in
Visibility 10.0 miles
Clouds Clear
Heat Index 73 °F
Dew Point 70 °F
Humidity 87%
Rainfall 0.00 in
Snow Depth Not available.
UV 0 out of 12
Pollen 10.90 out of 12
Air Quality Not available.
Flu Activity Not available.
METAR KVYS 020715Z AUTO 21007KT 10SM CLR 22/20 A3004 RMK AO2 T02150195

10-Day Weather Forecast

×

Almanac

Astronomy

Sep. 02, 2015 Rise Set
Actual Time
Civil Twilight
Nautical Twilight
Astronomical Twilight
Moon
Length of Visible Light
Length of Day
Tomorrow will be .
, % of the Moon is Illuminated

Today's Extremes

State Highs State Lows

Community

WunderPhotos

Upload Photos

1,851,721 photos uploaded!

WunderBlogs® & News

Nearby

Air Quality

  Air Quality AQ Index Pollutant
Not available.

Snow Depth

Station Depth Elevation

Earthquake Activity

City Distance Mag. Time & Date
Minimum magnitude displayed is 2.5.

Coastal Water Temperatures

Place Temperature

Stations

Nearby Weather Stations

Station Location Temp. Windchill Dew Point Humidity Wind Precip. Elev Updated Type